createdAt,value
2017-09-02T00:01:05.500Z,12.50
2017-09-02T00:03:33.946Z,12.63
2017-09-02T00:06:02.369Z,12.20
2017-09-02T00:08:30.806Z,12.40
2017-09-02T00:10:59.245Z,12.30
2017-09-02T00:13:27.675Z,12.30
2017-09-02T00:15:56.120Z,11.60
2017-09-02T00:18:24.560Z,12.47
2017-09-02T00:20:52.985Z,12.40
2017-09-02T00:23:21.431Z,12.47
2017-09-02T00:25:49.881Z,12.50
2017-09-02T00:28:18.321Z,12.93
2017-09-02T00:30:46.733Z,11.60
2017-09-02T00:33:15.868Z,11.97
2017-09-02T00:35:44.298Z,12.80
2017-09-02T00:38:12.712Z,12.53
2017-09-02T00:40:41.143Z,12.60
2017-09-02T00:43:09.373Z,12.50
2017-09-02T00:45:37.805Z,12.40
2017-09-02T00:48:06.052Z,13.77
2017-09-02T00:50:33.785Z,13.17
2017-09-02T00:53:02.204Z,13.57
2017-09-02T00:55:30.657Z,14.00
2017-09-02T00:57:59.086Z,15.53
2017-09-02T01:00:26.832Z,17.20
2017-09-02T01:02:55.269Z,15.43
2017-09-02T01:05:23.348Z,16.40
2017-09-02T01:07:51.094Z,15.80
2017-09-02T01:10:19.527Z,14.63
2017-09-02T01:12:47.595Z,15.30
2017-09-02T01:15:16.019Z,15.63
2017-09-02T01:17:44.728Z,14.50
2017-09-02T01:20:13.938Z,15.50
2017-09-02T01:22:42.380Z,15.60
2017-09-02T01:25:10.860Z,15.17
2017-09-02T01:27:39.279Z,14.60
2017-09-02T01:30:07.510Z,15.37
2017-09-02T01:32:35.956Z,13.60
2017-09-02T01:35:04.396Z,14.10
2017-09-02T01:37:32.860Z,14.13
2017-09-02T01:40:01.304Z,14.40
2017-09-02T01:42:29.964Z,13.93
2017-09-02T01:44:58.417Z,15.17
2017-09-02T01:47:26.868Z,14.60
2017-09-02T01:49:55.281Z,14.73
2017-09-02T01:52:23.733Z,15.07
2017-09-02T01:54:52.176Z,13.90
2017-09-02T01:57:20.566Z,15.30
2017-09-02T01:59:48.984Z,15.17
2017-09-02T02:02:17.231Z,15.67
2017-09-02T02:04:45.653Z,16.20
2017-09-02T02:07:14.085Z,15.90
2017-09-02T02:09:42.539Z,17.63
2017-09-02T02:12:10.420Z,16.10
2017-09-02T02:14:38.852Z,14.83
2017-09-02T02:17:08.072Z,16.40
2017-09-02T02:19:36.498Z,17.60
2017-09-02T02:22:05.169Z,17.70
2017-09-02T02:24:33.605Z,17.17
2017-09-02T02:27:02.057Z,17.00
2017-09-02T02:29:30.473Z,17.27
2017-09-02T02:31:58.930Z,16.80
2017-09-02T02:34:27.344Z,17.87
2017-09-02T02:36:55.783Z,17.43
2017-09-02T02:39:23.862Z,16.97
2017-09-02T02:41:52.277Z,16.90
2017-09-02T02:44:20.701Z,15.57
2017-09-02T02:46:49.177Z,16.90
2017-09-02T02:49:17.884Z,15.87
2017-09-02T02:51:46.300Z,15.57
2017-09-02T02:54:14.761Z,14.33
2017-09-02T02:56:43.457Z,16.80
2017-09-02T02:59:11.881Z,16.40
2017-09-02T03:01:40.335Z,15.20
2017-09-02T03:04:08.767Z,14.93
2017-09-02T03:06:37.192Z,16.23
2017-09-02T03:09:05.292Z,17.13
2017-09-02T03:11:33.706Z,18.10
2017-09-02T03:14:02.134Z,18.97
2017-09-02T03:16:30.573Z,19.13
2017-09-02T03:18:58.997Z,18.87
2017-09-02T03:21:27.438Z,21.30
2017-09-02T03:23:56.272Z,18.50
2017-09-02T03:26:24.837Z,19.70
2017-09-02T03:28:53.264Z,19.87
2017-09-02T03:31:21.781Z,18.20
2017-09-02T03:33:50.185Z,18.77
2017-09-02T03:36:18.604Z,19.60
2017-09-02T03:38:47.800Z,21.07
2017-09-02T03:41:16.220Z,20.67
2017-09-02T03:43:44.656Z,17.90
2017-09-02T03:46:13.107Z,20.80
2017-09-02T03:48:41.544Z,20.80
2017-09-02T03:51:09.958Z,19.80
2017-09-02T03:53:38.409Z,19.00
2017-09-02T03:56:06.828Z,17.63
2017-09-02T03:58:35.241Z,18.87
2017-09-02T04:01:03.684Z,18.97
2017-09-02T04:03:32.116Z,18.87
2017-09-02T04:06:00.526Z,18.57
2017-09-02T04:08:28.977Z,18.73
2017-09-02T04:10:57.393Z,19.00
2017-09-02T04:13:25.811Z,18.90
2017-09-02T04:15:54.083Z,17.50
2017-09-02T04:18:22.493Z,21.10
2017-09-02T04:20:50.916Z,21.77
2017-09-02T04:23:19.361Z,20.40
2017-09-02T04:25:47.774Z,19.60
2017-09-02T04:28:16.200Z,20.47
2017-09-02T04:30:44.693Z,18.27
2017-09-02T04:33:13.113Z,18.60
2017-09-02T04:35:41.560Z,18.23
2017-09-02T04:38:10.482Z,18.60
2017-09-02T04:40:38.910Z,20.40
2017-09-02T04:43:07.326Z,22.33
2017-09-02T04:45:36.025Z,22.37
2017-09-02T04:48:04.461Z,20.90
2017-09-02T04:50:32.918Z,20.90
2017-09-02T04:53:01.351Z,20.20
2017-09-02T04:55:29.770Z,19.10
2017-09-02T04:57:57.849Z,19.93
2017-09-02T05:00:25.969Z,19.53
2017-09-02T05:02:54.373Z,19.17
2017-09-02T05:05:22.792Z,19.23
2017-09-02T05:07:51.229Z,19.30
2017-09-02T05:10:19.652Z,19.07
2017-09-02T05:12:48.077Z,19.57
2017-09-02T05:15:16.521Z,19.30
2017-09-02T05:17:44.754Z,18.27
2017-09-02T05:20:13.013Z,20.20
2017-09-02T05:22:42.230Z,30.57
2017-09-02T05:25:10.648Z,26.00
2017-09-02T05:27:39.268Z,24.83
2017-09-02T05:30:07.950Z,22.30
2017-09-02T05:32:36.414Z,21.50
2017-09-02T05:35:05.095Z,21.37
2017-09-02T05:37:33.653Z,20.00
2017-09-02T05:40:02.233Z,21.60
2017-09-02T05:42:30.940Z,21.70
2017-09-02T05:45:00.156Z,23.07
2017-09-02T05:47:28.601Z,21.00
2017-09-02T05:49:57.045Z,21.53
2017-09-02T05:52:25.498Z,22.60
2017-09-02T05:54:54.205Z,20.63
2017-09-02T05:57:22.673Z,21.70
2017-09-02T05:59:51.124Z,21.10
2017-09-02T06:02:19.582Z,21.37
2017-09-02T06:04:48.278Z,22.33
2017-09-02T06:07:16.793Z,22.40
2017-09-02T06:09:45.222Z,22.40
2017-09-02T06:12:13.645Z,22.37
2017-09-02T06:14:42.093Z,22.27
2017-09-02T06:17:10.539Z,23.17
2017-09-02T06:19:38.952Z,22.30
2017-09-02T06:22:07.404Z,22.13
2017-09-02T06:24:35.826Z,22.93
2017-09-02T06:27:04.249Z,22.00
2017-09-02T06:29:32.685Z,23.63
2017-09-02T06:32:01.109Z,24.70
2017-09-02T06:34:29.616Z,24.83
2017-09-02T06:36:58.050Z,25.17
2017-09-02T06:39:26.478Z,23.60
2017-09-02T06:41:54.955Z,25.53
2017-09-02T06:44:23.393Z,24.37
2017-09-02T06:46:51.842Z,24.30
2017-09-02T06:49:20.268Z,25.57
2017-09-02T06:51:48.713Z,25.40
2017-09-02T06:54:17.410Z,26.27
2017-09-02T06:56:46.600Z,26.77
2017-09-02T06:59:15.838Z,26.50
2017-09-02T07:01:44.277Z,26.50
2017-09-02T07:04:12.721Z,27.10
2017-09-02T07:06:41.169Z,25.70
2017-09-02T07:09:09.590Z,25.77
2017-09-02T07:11:38.704Z,25.60
2017-09-02T07:14:07.166Z,26.27
2017-09-02T07:16:35.593Z,25.40
2017-09-02T07:19:04.012Z,24.03
2017-09-02T07:21:32.260Z,25.47
2017-09-02T07:24:00.693Z,24.10
2017-09-02T07:26:29.116Z,24.87
2017-09-02T07:28:57.562Z,25.10
2017-09-02T07:31:26.764Z,23.17
2017-09-02T07:33:55.983Z,25.67
2017-09-02T07:36:24.449Z,21.20
2017-09-02T07:38:53.623Z,24.60
2017-09-02T07:41:22.062Z,22.27
2017-09-02T07:43:50.513Z,19.53
2017-09-02T07:46:19.703Z,19.27
2017-09-02T07:48:48.132Z,17.50
2017-09-02T07:51:16.588Z,17.20
2017-09-02T07:53:45.028Z,17.57
2017-09-02T07:56:13.457Z,16.17
2017-09-02T07:58:41.709Z,16.00
2017-09-02T08:01:09.965Z,14.67
2017-09-02T08:03:38.218Z,15.70
2017-09-02T08:06:06.484Z,15.27
2017-09-02T08:08:34.921Z,14.70
2017-09-02T08:11:03.155Z,14.43
2017-09-02T08:13:31.621Z,13.47
2017-09-02T08:16:00.041Z,15.00
2017-09-02T08:18:28.473Z,16.00
2017-09-02T08:20:56.936Z,15.30
2017-09-02T08:23:25.372Z,14.87
2017-09-02T08:25:54.075Z,15.10
2017-09-02T08:28:22.526Z,20.00
2017-09-02T08:30:50.973Z,17.20
2017-09-02T08:33:19.396Z,16.67
2017-09-02T08:35:47.846Z,15.47
2017-09-02T08:38:16.270Z,15.57
2017-09-02T08:40:45.454Z,16.90
2017-09-02T08:43:14.664Z,17.30
2017-09-02T08:45:43.093Z,19.23
2017-09-02T08:48:11.537Z,19.03
2017-09-02T08:50:39.994Z,19.57
2017-09-02T08:53:08.435Z,18.87
2017-09-02T08:55:36.872Z,19.27
2017-09-02T08:58:05.341Z,18.60
2017-09-02T09:00:33.768Z,18.97
2017-09-02T09:03:02.282Z,17.87
2017-09-02T09:05:30.734Z,16.30
2017-09-02T09:07:59.921Z,17.83
2017-09-02T09:10:28.342Z,15.40
2017-09-02T09:12:56.809Z,17.10
2017-09-02T09:15:25.246Z,16.80
2017-09-02T09:17:53.687Z,17.37
2017-09-02T09:20:22.163Z,15.07
2017-09-02T09:22:50.641Z,18.50
2017-09-02T09:25:19.053Z,16.70
2017-09-02T09:27:47.501Z,16.10
2017-09-02T09:30:15.944Z,15.83
2017-09-02T09:32:44.388Z,16.27
2017-09-02T09:35:12.809Z,13.37
2017-09-02T09:37:41.242Z,14.40
2017-09-02T09:40:09.677Z,17.70
2017-09-02T09:42:38.877Z,16.43
2017-09-02T09:45:07.297Z,14.17
2017-09-02T09:47:35.981Z,18.97
2017-09-02T09:50:04.425Z,13.70
2017-09-02T09:52:32.840Z,13.30
2017-09-02T09:55:01.253Z,13.47
2017-09-02T09:57:29.693Z,13.07
2017-09-02T09:59:58.102Z,13.60
2017-09-02T10:02:26.528Z,12.20
2017-09-02T10:04:54.977Z,11.63
2017-09-02T10:07:23.400Z,12.40
2017-09-02T10:09:51.848Z,12.27
2017-09-02T10:12:20.112Z,13.40
2017-09-02T10:14:48.545Z,13.37
2017-09-02T10:17:16.965Z,13.07
2017-09-02T10:19:45.397Z,11.50
2017-09-02T10:22:13.828Z,11.27
2017-09-02T10:24:42.261Z,10.97
2017-09-02T10:27:10.720Z,10.47
2017-09-02T10:29:39.162Z,10.83
2017-09-02T10:32:07.606Z,10.57
2017-09-02T10:34:36.045Z,10.20
2017-09-02T10:37:04.542Z,9.40
2017-09-02T10:39:33.079Z,10.00
2017-09-02T10:42:01.544Z,9.47
2017-09-02T10:44:29.978Z,9.40
2017-09-02T10:46:58.408Z,9.10
2017-09-02T10:49:26.859Z,8.00
2017-09-02T10:51:55.564Z,8.27
2017-09-02T10:54:23.981Z,8.40
2017-09-02T10:56:52.422Z,7.40
2017-09-02T10:59:22.913Z,8.37
2017-09-02T11:01:51.337Z,7.97
2017-09-02T11:04:19.774Z,7.70
2017-09-02T11:06:48.183Z,8.33
2017-09-02T11:09:16.603Z,7.97
2017-09-02T11:11:45.047Z,7.40
2017-09-02T11:14:13.469Z,6.07
2017-09-02T11:16:41.876Z,5.70
2017-09-02T11:19:10.325Z,5.63
2017-09-02T11:21:38.766Z,6.10
2017-09-02T11:24:07.204Z,8.10
2017-09-02T11:26:35.652Z,7.67
2017-09-02T11:29:04.074Z,7.40
2017-09-02T11:31:32.489Z,6.43
2017-09-02T11:34:01.005Z,6.53
2017-09-02T11:36:29.509Z,5.70
2017-09-02T11:38:57.950Z,5.77
2017-09-02T11:41:26.420Z,11.63
2017-09-02T11:43:54.844Z,9.33
2017-09-02T11:46:23.261Z,12.47
2017-09-02T11:48:51.711Z,8.90
2017-09-02T11:51:20.108Z,7.93
2017-09-02T11:53:48.524Z,7.33
2017-09-02T11:56:16.996Z,7.03
2017-09-02T11:58:46.172Z,7.20
2017-09-02T12:01:14.620Z,9.33
2017-09-02T12:03:43.049Z,10.70
2017-09-02T12:06:11.545Z,9.60
2017-09-02T12:08:39.989Z,11.30
2017-09-02T12:11:08.428Z,11.37
2017-09-02T12:13:36.858Z,9.30
2017-09-02T12:16:05.278Z,8.10
2017-09-02T12:18:33.719Z,9.47
2017-09-02T12:21:02.193Z,8.93
2017-09-02T12:23:30.606Z,16.17
2017-09-02T12:25:59.311Z,8.90
2017-09-02T12:28:27.708Z,8.43
2017-09-02T12:30:56.116Z,6.23
2017-09-02T12:33:24.570Z,5.60
2017-09-02T12:35:52.974Z,5.33
2017-09-02T12:38:21.396Z,4.67
2017-09-02T12:40:49.830Z,3.73
2017-09-02T12:43:18.261Z,3.40
2017-09-02T12:45:46.678Z,3.03
2017-09-02T12:48:15.144Z,3.20
2017-09-02T12:50:43.548Z,4.20
2017-09-02T12:53:11.969Z,5.77
2017-09-02T12:55:40.411Z,5.97
2017-09-02T12:58:08.869Z,6.00
2017-09-02T13:00:37.316Z,6.50
2017-09-02T13:03:05.776Z,8.13
2017-09-02T13:05:33.506Z,7.50
2017-09-02T13:08:01.916Z,7.50
2017-09-02T13:10:30.357Z,7.80
2017-09-02T13:12:58.773Z,8.27
2017-09-02T13:15:27.185Z,9.87
2017-09-02T13:17:55.621Z,9.90
2017-09-02T13:20:24.052Z,10.03
2017-09-02T13:22:52.550Z,9.30
2017-09-02T13:25:20.994Z,8.97
2017-09-02T13:27:49.428Z,8.20
2017-09-02T13:30:17.873Z,9.43
2017-09-02T13:32:46.337Z,6.50
2017-09-02T13:35:14.750Z,7.00
2017-09-02T13:37:43.168Z,8.90
2017-09-02T13:40:11.642Z,10.47
2017-09-02T13:42:40.065Z,9.90
2017-09-02T13:45:08.486Z,10.10
2017-09-02T13:47:36.949Z,10.30
2017-09-02T13:50:05.392Z,9.83
2017-09-02T13:52:33.805Z,10.20
2017-09-02T13:55:02.262Z,12.87
2017-09-02T13:57:30.686Z,10.27
2017-09-02T13:59:59.873Z,9.77
2017-09-02T14:02:28.305Z,10.10
2017-09-02T14:04:56.737Z,10.47
2017-09-02T14:07:25.240Z,9.63
2017-09-02T14:09:53.685Z,8.97
2017-09-02T14:12:21.912Z,9.73
2017-09-02T14:14:50.156Z,10.60
2017-09-02T14:17:18.622Z,9.90
2017-09-02T14:19:47.034Z,5.93
2017-09-02T14:22:15.441Z,4.50
2017-09-02T14:24:43.705Z,4.03
2017-09-02T14:27:12.122Z,3.70
2017-09-02T14:29:40.547Z,3.50
2017-09-02T14:32:08.997Z,2.57
2017-09-02T14:34:37.435Z,3.00
2017-09-02T14:37:05.862Z,2.70
2017-09-02T14:39:35.069Z,3.63
2017-09-02T14:42:03.473Z,2.10
2017-09-02T14:44:31.885Z,3.00
2017-09-02T14:47:00.364Z,3.60
2017-09-02T14:49:28.806Z,2.97
2017-09-02T14:51:57.265Z,2.97
2017-09-02T14:54:25.737Z,3.33
2017-09-02T14:56:54.145Z,3.20
2017-09-02T14:59:22.561Z,3.73
2017-09-02T15:01:51.023Z,3.53
2017-09-02T15:04:19.446Z,3.07
2017-09-02T15:06:47.863Z,3.13
2017-09-02T15:09:16.302Z,3.03
2017-09-02T15:11:44.735Z,4.23
2017-09-02T15:14:13.171Z,4.30
2017-09-02T15:16:41.613Z,3.37
2017-09-02T15:19:10.051Z,3.37
2017-09-02T15:21:38.476Z,2.37
2017-09-02T15:24:06.884Z,2.63
2017-09-02T15:26:35.297Z,2.37
2017-09-02T15:29:03.717Z,2.87
2017-09-02T15:31:32.149Z,2.83
2017-09-02T15:34:00.557Z,2.97
2017-09-02T15:36:28.969Z,2.50
2017-09-02T15:38:57.392Z,2.20
2017-09-02T15:41:25.838Z,2.77
2017-09-02T15:43:54.250Z,2.10
2017-09-02T15:46:22.686Z,2.30
2017-09-02T15:48:51.105Z,2.50
2017-09-02T15:51:19.533Z,2.80
2017-09-02T15:53:47.957Z,2.40
2017-09-02T15:56:16.364Z,2.87
2017-09-02T15:58:44.778Z,4.80
2017-09-02T16:01:13.275Z,3.27
2017-09-02T16:03:42.901Z,2.83
2017-09-02T16:06:11.327Z,2.90
2017-09-02T16:08:39.882Z,2.70
2017-09-02T16:11:08.117Z,3.80
2017-09-02T16:13:36.612Z,7.13
2017-09-02T16:16:05.030Z,7.07
2017-09-02T16:18:33.484Z,4.17
2017-09-02T16:21:02.914Z,4.20
2017-09-02T16:23:31.374Z,3.60
2017-09-02T16:26:00.053Z,13.63
2017-09-02T16:28:28.469Z,3.87
2017-09-02T16:30:56.960Z,3.40
2017-09-02T16:33:25.390Z,3.23
2017-09-02T16:35:53.807Z,4.30
2017-09-02T16:38:22.254Z,3.60
2017-09-02T16:40:50.669Z,3.03
2017-09-02T16:43:19.084Z,3.30
2017-09-02T16:45:47.519Z,3.07
2017-09-02T16:48:15.752Z,3.10
2017-09-02T16:50:43.985Z,3.37
2017-09-02T16:53:12.267Z,5.00
2017-09-02T16:55:40.501Z,8.70
2017-09-02T16:58:08.731Z,5.70
2017-09-02T17:00:37.021Z,4.70
2017-09-02T17:03:05.258Z,4.90
2017-09-02T17:05:33.542Z,4.53
2017-09-02T17:08:01.802Z,3.23
2017-09-02T17:10:30.034Z,3.43
2017-09-02T17:12:58.269Z,3.20
2017-09-02T17:15:26.526Z,2.77
2017-09-02T17:17:54.757Z,2.50
2017-09-02T17:20:22.999Z,2.83
2017-09-02T17:22:51.302Z,2.40
2017-09-02T17:25:19.533Z,3.70
2017-09-02T17:27:47.757Z,3.17
2017-09-02T17:30:15.993Z,2.77
2017-09-02T17:32:44.429Z,2.83
2017-09-02T17:35:12.828Z,3.67
2017-09-02T17:37:41.276Z,3.00
2017-09-02T17:40:09.705Z,4.13
2017-09-02T17:42:40.414Z,5.10
2017-09-02T17:45:08.857Z,8.00
2017-09-02T17:47:37.346Z,7.90
2017-09-02T17:50:05.781Z,3.80
2017-09-02T17:52:34.118Z,4.97
2017-09-02T17:55:02.540Z,4.40
2017-09-02T17:57:31.005Z,3.30
2017-09-02T17:59:59.429Z,3.17
2017-09-02T18:02:27.873Z,3.00
2017-09-02T18:04:56.303Z,2.87
2017-09-02T18:07:24.972Z,3.17
2017-09-02T18:09:53.404Z,3.70
2017-09-02T18:12:21.851Z,25.10
2017-09-02T18:14:50.264Z,10.60
2017-09-02T18:17:19.468Z,6.60
2017-09-02T18:19:48.712Z,6.07
2017-09-02T18:22:17.115Z,6.10
2017-09-02T18:24:45.531Z,5.77
2017-09-02T18:27:13.786Z,5.13
2017-09-02T18:29:42.210Z,5.43
2017-09-02T18:32:10.612Z,5.10
2017-09-02T18:34:39.056Z,5.10
2017-09-02T18:37:07.471Z,5.77
2017-09-02T18:39:35.886Z,5.70
2017-09-02T18:42:04.367Z,5.20
2017-09-02T18:44:32.773Z,8.20
2017-09-02T18:47:01.091Z,7.20
2017-09-02T18:49:29.365Z,6.60
2017-09-02T18:51:57.619Z,7.83
2017-09-02T18:54:25.837Z,7.30
2017-09-02T18:56:53.940Z,7.20
2017-09-02T18:59:22.361Z,6.13
2017-09-02T19:01:50.789Z,7.10
2017-09-02T19:04:19.350Z,6.70
2017-09-02T19:06:48.530Z,5.97
2017-09-02T19:09:17.038Z,7.60
2017-09-02T19:11:45.475Z,6.60
2017-09-02T19:14:13.957Z,7.27
2017-09-02T19:16:42.406Z,6.60
2017-09-02T19:19:10.858Z,6.87
2017-09-02T19:21:40.048Z,12.60
2017-09-02T19:24:08.698Z,25.77
2017-09-02T19:26:37.158Z,19.67
2017-09-02T19:29:05.642Z,12.20
2017-09-02T19:31:34.046Z,7.33
2017-09-02T19:34:02.485Z,7.90
2017-09-02T19:36:31.693Z,8.07
2017-09-02T19:39:00.173Z,7.63
2017-09-02T19:41:28.637Z,7.20
2017-09-02T19:43:57.066Z,8.00
2017-09-02T19:46:25.510Z,7.17
2017-09-02T19:48:53.957Z,7.97
2017-09-02T19:51:22.452Z,7.60
2017-09-02T19:53:51.140Z,8.23
2017-09-02T19:56:19.569Z,8.33
2017-09-02T19:58:47.980Z,8.13
2017-09-02T20:01:16.404Z,8.03
2017-09-02T20:03:45.104Z,11.40
2017-09-02T20:06:13.648Z,7.80
2017-09-02T20:08:42.082Z,8.90
2017-09-02T20:11:10.349Z,8.73
2017-09-02T20:13:38.733Z,8.77
2017-09-02T20:16:07.923Z,10.00
2017-09-02T20:18:36.830Z,9.13
2017-09-02T20:21:06.025Z,7.80
2017-09-02T20:23:34.678Z,8.07
2017-09-02T20:26:03.126Z,8.93
2017-09-02T20:28:31.541Z,8.60
2017-09-02T20:30:59.957Z,7.70
2017-09-02T20:33:28.396Z,8.17
2017-09-02T20:35:56.827Z,8.70
2017-09-02T20:38:25.502Z,8.13
2017-09-02T20:40:53.839Z,8.63
2017-09-02T20:43:22.282Z,8.60
2017-09-02T20:45:50.974Z,8.13
2017-09-02T20:48:19.441Z,8.63
2017-09-02T20:50:47.868Z,8.40
2017-09-02T20:53:16.283Z,8.67
2017-09-02T20:55:45.004Z,21.87
2017-09-02T20:58:13.415Z,19.77
2017-09-02T21:00:41.871Z,14.73
2017-09-02T21:03:09.945Z,8.93
2017-09-02T21:05:38.365Z,10.10
2017-09-02T21:08:06.780Z,10.00
2017-09-02T21:10:35.229Z,9.33
2017-09-02T21:13:03.667Z,10.00
2017-09-02T21:15:32.083Z,8.97
2017-09-02T21:18:01.290Z,9.30
2017-09-02T21:20:29.716Z,8.90
2017-09-02T21:22:58.165Z,8.30
2017-09-02T21:25:26.417Z,8.63
2017-09-02T21:27:54.832Z,9.33
2017-09-02T21:30:23.256Z,9.30
2017-09-02T21:32:51.705Z,8.40
2017-09-02T21:35:20.145Z,8.30
2017-09-02T21:37:48.569Z,9.17
2017-09-02T21:40:17.033Z,10.10
2017-09-02T21:42:45.461Z,10.10
2017-09-02T21:45:13.904Z,12.93
2017-09-02T21:47:42.356Z,13.03
2017-09-02T21:50:10.782Z,9.97
2017-09-02T21:52:39.373Z,9.97
2017-09-02T21:55:07.818Z,9.80
2017-09-02T21:57:36.247Z,9.83
2017-09-02T22:00:04.273Z,9.37
2017-09-02T22:02:32.737Z,9.70
2017-09-02T22:05:01.168Z,9.73
2017-09-02T22:07:30.362Z,8.97
2017-09-02T22:09:58.802Z,9.10
2017-09-02T22:12:27.258Z,9.67
2017-09-02T22:14:55.662Z,9.00
2017-09-02T22:17:24.171Z,9.17
2017-09-02T22:19:53.273Z,8.90
2017-09-02T22:22:21.692Z,9.27
2017-09-02T22:24:50.188Z,8.47
2017-09-02T22:27:18.700Z,8.70
2017-09-02T22:29:47.145Z,8.97
2017-09-02T22:32:15.585Z,8.33
2017-09-02T22:34:44.019Z,8.83
2017-09-02T22:37:12.452Z,8.90
2017-09-02T22:39:40.876Z,8.60
2017-09-02T22:42:09.304Z,9.07
2017-09-02T22:44:37.726Z,9.27
2017-09-02T22:47:06.354Z,8.80
2017-09-02T22:49:34.779Z,9.03
2017-09-02T22:52:03.233Z,9.23
2017-09-02T22:54:32.433Z,8.53
2017-09-02T22:57:00.912Z,9.00
2017-09-02T22:59:29.612Z,9.43
2017-09-02T23:01:58.186Z,9.60
2017-09-02T23:04:26.621Z,9.67
2017-09-02T23:06:55.033Z,9.67
2017-09-02T23:09:23.473Z,9.57
2017-09-02T23:11:51.913Z,9.90
2017-09-02T23:14:20.343Z,9.53
2017-09-02T23:16:48.849Z,9.67
2017-09-02T23:19:17.340Z,10.53
2017-09-02T23:21:45.801Z,9.87
2017-09-02T23:24:14.289Z,10.00
2017-09-02T23:26:42.716Z,10.17
2017-09-02T23:29:11.160Z,9.80
2017-09-02T23:31:39.646Z,10.17
2017-09-02T23:34:08.076Z,10.83
2017-09-02T23:36:36.507Z,9.27
2017-09-02T23:39:04.265Z,10.33
2017-09-02T23:41:32.669Z,9.13
2017-09-02T23:44:01.096Z,9.77
2017-09-02T23:46:29.544Z,9.73
2017-09-02T23:48:58.034Z,10.03
2017-09-02T23:51:26.446Z,10.93
2017-09-02T23:53:54.946Z,11.00
2017-09-02T23:56:23.360Z,11.43
2017-09-02T23:58:51.786Z,10.80
